Latest Coastal Weather Observations for Groote Eylandt Airport

IDD60701

Issued at 9:51 am CST Monday 27 April 2015 (issued every 10 minutes, with the page automatically refreshed every 10 minutes)

About coastal observations | Map of coastal stations | Coastal observations for NT | Marine services | Other Formats
Station Details ID: 014518 Name: GROOTE EYLANDT AIRPORT Lat: -13.97 Lon: 136.46 Height: 13.7 m
Data from the previous 72 hours. | See also: Recent months at Groote Eylandt Airport
Date/Time
CST
Temp

°C
Wind Pressure Rain
since 9am
mm
Weather Cloud Vis
km
Sea
Height
m
Swell
Dir
 
Speed
knots
Gust
knots
hPa Trend Height
m
Period
s
Dir
27/09:30am 28.8 SE 10 18 1014.3 - 0.0 - - 10 - - - -
27/09:00am 28.2 ESE 11 16 1014.1 - 0.0 - - 10 - - - -
27/08:30am 27.1 SE 6 11 1014.0 - 0.0 - - 10 - - - -
27/08:00am 24.7 SE 2 5 1013.9 - 0.0 - - 10 - - - -
27/07:30am 20.8 CALM 0 0 1013.7 - 0.0 - - 10 - - - -
27/07:00am 18.0 CALM 0 0 1013.4 - 0.0 - - 10 - - - -
27/06:30am 17.3 SE 1 3 1013.0 - 0.0 - - 10 - - - -
27/06:00am 17.5 CALM 0 0 1012.8 - 0.0 - - 10 - - - -
27/05:30am 17.6 CALM 0 0 1012.5 - 0.0 - - 10 - - - -
27/05:00am 18.0 CALM 0 0 1012.4 - 0.0 - - 10 - - - -
27/04:30am 18.1 CALM 0 0 1012.4 - 0.0 - - 10 - - - -
27/04:00am 18.0 E 3 4 1012.4 - 0.0 - - 10 - - - -
27/03:30am 17.5 SE 1 4 1012.4 - 0.0 - - 10 - - - -
27/03:00am 17.8 E 3 4 1012.5 - 0.0 - - 10 - - - -
27/02:30am 17.6 E 3 4 1012.6 - 0.0 - - 10 - - - -
27/02:00am 17.6 CALM 0 0 1012.7 - 0.0 - - 10 - - - -
27/01:30am 17.5 CALM 0 0 1013.0 - 0.0 - - 10 - - - -
27/01:00am 18.1 E 3 4 1013.3 - 0.0 - - 10 - - - -
27/12:30am 18.2 E 3 4 1013.6 - 0.0 - - 10 - - - -
27/12:00am 18.3 E 3 4 1014.0 - 0.0 - - 10 - - - -
 
Date/Time
CST
Temp

°C
Wind Pressure Rain
since 9am
mm
Weather Cloud Vis
km
Sea
Height
m
Swell
Dir
 
Speed
knots
Gust
knots
hPa Trend Height
m
Period
s
Dir
26/11:30pm 19.2 CALM 0 0 1014.1 - 0.0 - - 10 - - - -
26/11:00pm 18.8 E 1 3 1014.4 - 0.0 - - 10 - - - -
26/10:30pm 19.7 E 4 4 1014.5 - 0.0 - - 10 - - - -
26/10:00pm 20.3 E 3 4 1014.8 - 0.0 - - 10 - - - -
26/09:30pm 20.8 CALM 0 0 1015.1 - 0.0 - - 10 - - - -
26/09:00pm 21.3 CALM 0 0 1014.9 - 0.0 - - 10 - - - -
26/08:30pm 22.0 CALM 0 0 1014.7 - 0.0 - - 10 - - - -
26/08:00pm 22.7 SSE 3 4 1014.5 - 0.0 - - 10 - - - -
26/07:30pm 23.7 SSE 2 4 1014.2 - 0.0 - - 10 - - - -
26/07:00pm 24.7 SE 3 5 1013.8 - 0.0 - - 10 - - - -
26/06:30pm 25.4 SE 5 8 1013.4 - 0.0 - - 10 - - - -
26/06:00pm 25.9 SE 7 10 1013.1 - 0.0 - - 10 - - - -
26/05:30pm 26.7 SE 7 11 1012.9 - 0.0 - - 10 - - - -
26/05:00pm 27.4 SE 7 11 1012.7 - 0.0 - - 10 - - - -
26/04:30pm 27.8 SE 8 13 1012.6 - 0.0 - - 10 - - - -
26/04:00pm 27.8 SE 8 13 1012.3 - 0.0 - - 10 - - - -
26/03:30pm 28.3 SE 9 14 1012.3 - 0.0 - - 10 - - - -
26/03:00pm 28.4 SE 9 16 1012.3 - 0.0 - - 10 - - - -
26/02:30pm 28.9 SE 9 16 1012.4 - 0.0 - - 10 - - - -
26/02:00pm 29.0 SE 11 18 1012.6 - 0.0 - Partly cloudy 10 - - - -
26/01:30pm 28.6 SSE 11 18 1012.6 - 0.0 - Partly cloudy 10 - - - -
26/01:00pm 28.9 SE 10 17 1012.9 - 0.0 - Partly cloudy 10 - - - -
26/12:30pm 28.9 SSE 11 17 1013.0 - 0.0 - Partly cloudy 10 - - - -
26/12:00pm 28.9 ESE 11 18 1013.3 - 0.0 - Mostly clear 10 - - - -
26/11:30am 28.3 SSE 11 17 1013.7 - 0.0 - Partly cloudy 10 - - - -
26/11:00am 28.7 SE 11 19 1013.9 - 0.0 - - 10 - - - -
26/10:30am 28.7 ESE 9 16 1014.0 - 0.0 - Partly cloudy 10 - - - -
26/10:00am 28.1 SE 11 20 1014.1 - 0.0 - Partly cloudy 10 - - - -
26/09:30am 27.9 SE 11 18 1014.2 - 0.0 - - 10 - - - -
26/09:00am 27.5 SE 11 17 1013.6 - 0.0 - - 10 - - - -
26/08:30am 27.2 SSE 6 11 1013.3 - 0.0 - - 10 - - - -
26/08:00am 26.0 SSE 5 8 1013.2 - 0.0 - - 10 - - - -
26/07:30am 24.0 SSE 4 6 1013.0 - 0.0 - - 10 - - - -
26/07:00am 20.4 SSE 3 5 1012.7 - 0.0 - - 10 - - - -
26/06:30am 18.5 SSE 3 4 1012.5 - 0.0 - - 10 - - - -
26/06:00am 18.2 ESE 1 3 1012.3 - 0.0 - - 10 - - - -
26/05:30am 18.0 ESE 3 4 1011.9 - 0.0 - - 10 - - - -
26/05:00am 17.5 SE 2 4 1011.9 - 0.0 - - 10 - - - -
26/04:30am 17.8 CALM 0 0 1011.7 - 0.0 - - 10 - - - -
26/04:00am 17.8 CALM 0 0 1011.5 - 0.0 - - 10 - - - -
26/03:30am 17.9 CALM 0 0 1011.3 - 0.0 - - 10 - - - -
26/03:00am 17.9 CALM 0 0 1011.2 - 0.0 - - 10 - - - -
26/02:30am 18.1 CALM 0 0 1011.1 - 0.0 - - 10 - - - -
26/02:00am 17.9 CALM 0 0 1011.4 - 0.0 - - 10 - - - -
26/01:30am 18.7 CALM 0 0 1011.7 - 0.0 - - 10 - - - -
26/01:00am 18.6 CALM 0 0 1011.9 - 0.0 - - 10 - - - -
26/12:30am 19.0 E 3 4 1012.1 - 0.0 - - 10 - - - -
26/12:00am 19.2 CALM 0 0 1012.4 - 0.0 - - 10 - - - -
 
Date/Time
CST
Temp

°C
Wind Pressure Rain
since 9am
mm
Weather Cloud Vis
km
Sea
Height
m
Swell
Dir
 
Speed
knots
Gust
knots
hPa Trend Height
m
Period
s
Dir
25/11:30pm 19.8 CALM 0 0 1012.5 - 0.0 - - 10 - - - -
25/11:00pm 20.1 CALM 0 0 1012.6 - 0.0 - - 10 - - - -
25/10:30pm 20.6 CALM 0 0 1012.5 - 0.0 - - 10 - - - -
25/10:00pm 20.9 CALM 0 0 1012.8 - 0.0 - - 10 - - - -
25/09:30pm 21.8 CALM 0 0 1013.0 - 0.0 - - 10 - - - -
25/09:00pm 22.8 CALM 0 0 1013.0 - 0.0 - - 10 - - - -
25/08:30pm 23.4 CALM 0 0 1012.8 - 0.0 - - 10 - - - -
25/08:00pm 24.3 SE 3 4 1012.3 - 0.0 - - 10 - - - -
25/07:30pm 25.7 SE 3 5 1012.2 - 0.0 - - 10 - - - -
25/07:00pm 26.3 SE 4 5 1011.7 - 0.0 - - 10 - - - -
25/06:30pm 27.3 ESE 5 9 1011.5 - 0.0 - - 10 - - - -
25/06:00pm 28.0 SE 5 11 1011.0 - 0.0 - - 10 - - - -
25/05:30pm 28.9 ESE 8 14 1010.6 - 0.0 - - 10 - - - -
25/05:00pm 29.8 SE 7 14 1010.2 - 0.0 - - 10 - - - -
25/04:30pm 30.0 SE 9 14 1010.0 - 0.0 - - 10 - - - -
25/04:00pm 30.7 SE 9 14 1009.6 - 0.0 - - 10 - - - -
25/03:30pm 31.0 SE 8 13 1009.4 - 0.0 - - 10 - - - -
25/03:00pm 31.3 ESE 9 14 1009.4 - 0.0 - - 10 - - - -
25/02:30pm 31.3 ESE 9 15 1009.6 - 0.0 - - 10 - - - -
25/02:00pm 31.3 SE 9 17 1009.7 - 0.0 - - 10 - - - -
25/01:30pm 31.2 SE 9 13 1010.0 - 0.0 - - 10 - - - -
25/01:00pm 31.2 SSE 9 15 1010.2 - 0.0 - - 10 - - - -
25/12:30pm 30.7 SE 7 16 1010.7 - 0.0 - - 10 - - - -
25/12:00pm 30.5 SE 8 14 1011.1 - 0.0 - - 10 - - - -
25/11:30am 30.1 SSE 7 13 1011.5 - 0.0 - - 10 - - - -
25/11:00am 29.6 SSE 8 13 1011.8 - 0.0 - - 10 - - - -
25/10:30am 29.3 SSE 7 13 1012.0 - 0.0 - - 10 - - - -
25/10:00am 28.7 SSE 5 8 1012.1 - 0.0 - - 10 - - - -
25/09:30am 27.6 SSE 5 8 1012.1 - 0.0 - - 10 - - - -
25/09:00am 27.6 SSE 5 8 1011.9 - 0.0 - - 10 - - - -
25/08:30am 25.6 SE 3 4 1011.8 - 0.0 - - 10 - - - -
25/08:00am 22.7 ESE 3 4 1011.7 - 0.0 - - 10 - - - -
25/07:30am 19.9 CALM 0 0 1011.7 - 0.0 - - 10 - - - -
25/07:00am 17.5 E 3 4 1011.3 - 0.0 - - 10 - - - -
25/06:30am 16.8 CALM 0 0 1010.9 - 0.0 - - 10 - - - -
25/06:00am 16.7 ESE 2 3 1010.5 - 0.0 - - 10 - - - -
25/05:30am 16.9 CALM 0 0 1010.1 - 0.0 - - 10 - - - -
25/05:00am 17.1 E 2 5 1009.9 - 0.0 - - 10 - - - -
25/04:30am 17.5 CALM 0 0 1010.1 - 0.0 - - 10 - - - -
25/04:00am 17.5 ESE 3 4 1010.1 - 0.0 - - 10 - - - -
25/03:30am 17.6 E 4 4 1010.1 - 0.0 - - 10 - - - -
25/03:00am 17.5 E 3 4 1010.1 - 0.0 - - 10 - - - -
25/02:30am 17.9 E 2 4 1010.1 - 0.0 - - 10 - - - -
25/02:00am 18.0 E 1 3 1010.1 - 0.0 - - 10 - - - -
25/01:30am 18.0 ESE 3 4 1010.3 - 0.0 - - 10 - - - -
25/01:00am 18.3 CALM 0 0 1010.6 - 0.0 - - 10 - - - -
25/12:30am 18.8 E 3 4 1010.8 - 0.0 - - 10 - - - -
25/12:00am 19.0 E 4 5 1011.0 - 0.0 - - 10 - - - -
 
Date/Time
CST
Temp

°C
Wind Pressure Rain
since 9am
mm
Weather Cloud Vis
km
Sea
Height
m
Swell
Dir
 
Speed
knots
Gust
knots
hPa Trend Height
m
Period
s
Dir
24/11:30pm 19.5 ESE 4 5 1011.2 - 0.0 - - 10 - - - -
24/11:00pm 19.7 E 3 4 1011.3 - 0.0 - - 10 - - - -
24/10:30pm 19.9 E 3 4 1011.3 - 0.0 - - 10 - - - -
24/10:00pm 20.1 CALM 0 0 1011.4 - 0.0 - - 10 - - - -
24/09:30pm 21.1 CALM 0 0 1011.5 - 0.0 - - 10 - - - -
24/09:00pm 21.5 CALM 0 0 1011.4 - 0.0 - - 10 - - - -
24/08:30pm 22.5 CALM 0 0 1011.3 - 0.0 - - 10 - - - -
24/08:00pm 23.6 CALM 0 0 1011.2 - 0.0 - - 10 - - - -
24/07:30pm 24.9 ESE 4 5 1010.7 - 0.0 - - 10 - - - -
24/07:00pm 26.0 SE 4 5 1010.3 - 0.0 - - 10 - - - -
24/06:30pm 26.9 SE 4 5 1009.9 - 0.0 - - 10 - - - -
24/06:00pm 27.8 SSE 5 8 1009.4 - 0.0 - - 10 - - - -
24/05:30pm 29.3 SSE 5 7 1009.2 - 0.0 - - 10 - - - -
24/05:00pm 30.2 SSE 5 10 1009.2 - 0.0 - - 10 - - - -
24/04:30pm 30.4 SSE 7 10 1009.0 - 0.0 - - 10 - - - -
24/04:00pm 30.9 SSE 6 9 1008.7 - 0.0 - - 10 - - - -
24/03:30pm 30.9 SSE 7 12 1008.7 - 0.0 - - 10 - - - -
24/03:00pm 31.1 S 8 13 1008.9 - 0.0 - - 10 - - - -
24/02:30pm 31.3 SSE 7 11 1008.9 - 0.0 - - 10 - - - -
24/02:00pm 32.0 SE 5 9 1009.0 - 0.0 - - 10 - - - -
24/01:30pm 31.7 SSE 5 9 1009.2 - 0.0 - - 10 - - - -
24/01:00pm 31.6 ESE 5 9 1009.6 - 0.0 - - 10 - - - -
24/12:30pm 31.3 S 6 9 1010.0 - 0.0 - - 10 - - - -
24/12:00pm 30.8 ESE 6 9 1010.5 - 0.0 - - 10 - - - -
24/11:30am 30.8 E 7 11 1011.1 - 0.0 - - 10 - - - -
24/11:00am 30.3 E 7 10 1011.5 - 0.0 - - 10 - - - -
24/10:30am 29.5 SE 6 10 1011.9 - 0.0 - - 10 - - - -
24/10:00am 29.1 SSE 7 11 1012.1 - 0.0 - - 10 - - - -

Other Formats:

Comma delimited format used in spreadsheet applications
http://www.bom.gov.au/fwo/IDD60701/IDD60701.94153.axf

JavaScript Object Notation format (JSON) in row-major order
http://www.bom.gov.au/fwo/IDD60701/IDD60701.94153.json